Time;durP1;ratioP1;P1;durP2;ratioP2;P2;SDS_P1;SDS_P2;PMS_P1;PMS_P2;Temp;Humidity;BMP_temperature;BMP_pressure;BME280_temperature;BME280_humidity;BME280_pressure;Samples;Min_cycle;Max_cycle;Signal;HPM_P1;HPM_P2
2023/03/20 00:00:50;;;;;;;22.45;15.07;;;8.40;99.90;;;;;;5040783;28;20075;-71
2023/03/20 00:03:19;;;;;;;20.05;14.65;;;8.40;99.90;;;;;;5050496;28;20177;-71
2023/03/20 00:05:45;;;;;;;19.08;13.63;;;8.30;99.90;;;;;;5055086;28;20047;-71
2023/03/20 00:08:11;;;;;;;16.17;12.27;;;8.30;99.90;;;;;;5042828;28;20494;-71
2023/03/20 00:10:44;;;;;;;16.88;11.40;;;8.30;99.90;;;;;;5048985;28;20044;-70
2023/03/20 00:13:17;;;;;;;14.07;10.65;;;8.30;99.90;;;;;;5041132;28;20040;-70
2023/03/20 00:15:44;;;;;;;16.40;11.30;;;8.30;99.90;;;;;;5021184;28;20682;-70
2023/03/20 00:18:19;;;;;;;16.23;11.38;;;8.30;99.90;;;;;;5042287;28;20048;-70
2023/03/20 00:20:46;;;;;;;18.73;11.98;;;8.30;99.90;;;;;;5035240;28;20043;-70
2023/03/20 00:23:17;;;;;;;16.45;11.68;;;8.20;99.90;;;;;;5035990;28;20435;-70
2023/03/20 00:25:47;;;;;;;18.05;11.77;;;8.20;99.90;;;;;;5056298;28;20044;-70
2023/03/20 00:28:36;;;;;;;18.55;13.02;;;8.20;99.90;;;;;;5049559;28;20518;-70
2023/03/20 00:31:23;;;;;;;18.83;12.38;;;8.20;99.90;;;;;;5038689;28;20555;-70
2023/03/20 00:33:50;;;;;;;17.73;12.00;;;8.20;99.90;;;;;;5043791;28;20066;-71
2023/03/20 00:36:15;;;;;;;18.52;12.27;;;8.20;99.90;;;;;;5058797;28;20067;-72
2023/03/20 00:38:41;;;;;;;18.20;12.35;;;8.20;99.90;;;;;;5057479;28;20050;-73
2023/03/20 00:41:28;;;;;;;19.15;12.85;;;8.10;99.90;;;;;;5040282;28;20037;-73
2023/03/20 00:44:13;;;;;;;19.45;12.73;;;8.20;99.90;;;;;;5028501;28;20045;-73
2023/03/20 00:46:39;;;;;;;20.08;12.93;;;8.10;99.90;;;;;;5035308;28;20091;-72
2023/03/20 00:49:05;;;;;;;16.00;12.32;;;8.10;99.90;;;;;;5022150;28;20582;-73
2023/03/20 00:51:31;;;;;;;23.55;14.77;;;8.10;99.90;;;;;;5040377;28;20098;-72
2023/03/20 00:53:57;;;;;;;25.10;15.68;;;8.20;99.90;;;;;;5039222;28;20052;-73
2023/03/20 00:56:37;;;;;;;21.85;14.85;;;8.20;99.90;;;;;;5051891;28;20044;-73
2023/03/20 00:59:03;;;;;;;26.20;14.93;;;8.20;99.90;;;;;;5046307;28;20119;-72
2023/03/20 01:01:30;;;;;;;23.05;15.23;;;8.20;99.90;;;;;;5030634;28;20033;-73
2023/03/20 01:04:08;;;;;;;23.80;14.55;;;8.10;99.90;;;;;;5057028;28;20052;-73
2023/03/20 01:06:34;;;;;;;24.63;15.18;;;8.20;99.90;;;;;;5071247;28;20091;-73
2023/03/20 01:09:00;;;;;;;27.88;14.73;;;8.20;99.90;;;;;;5029500;28;20033;-73
2023/03/20 01:11:26;;;;;;;25.25;15.15;;;8.20;99.90;;;;;;5022948;28;20047;-73
2023/03/20 01:13:52;;;;;;;25.52;14.90;;;8.20;99.90;;;;;;5040745;28;20044;-73
2023/03/20 01:16:24;;;;;;;26.60;15.00;;;8.20;99.90;;;;;;5033741;28;20054;-73
2023/03/20 01:18:50;;;;;;;23.02;14.20;;;8.10;99.90;;;;;;5047661;28;20041;-73
2023/03/20 01:21:17;;;;;;;24.60;14.15;;;8.10;99.90;;;;;;5048654;28;20045;-73
2023/03/20 01:23:43;;;;;;;24.35;13.93;;;8.10;99.90;;;;;;5049622;28;20577;-73
2023/03/20 01:26:50;;;;;;;21.10;13.23;;;8.20;99.90;;;;;;5053434;28;20052;-73
2023/03/20 01:29:19;;;;;;;20.77;11.98;;;8.20;99.90;;;;;;4955438;28;20497;-73
2023/03/20 01:31:45;;;;;;;18.90;11.40;;;8.10;99.90;;;;;;4963030;28;20043;-73
2023/03/20 01:34:11;;;;;;;15.82;10.18;;;8.10;99.90;;;;;;5007393;28;20155;-73
2023/03/20 01:36:37;;;;;;;21.70;11.90;;;8.10;99.90;;;;;;5013296;28;20459;-73
2023/03/20 01:39:04;;;;;;;25.50;11.45;;;8.10;99.90;;;;;;5034100;28;20036;-73
2023/03/20 01:41:31;;;;;;;20.15;11.13;;;8.10;99.90;;;;;;5050765;28;20040;-73
2023/03/20 01:44:00;;;;;;;17.67;10.80;;;8.10;99.90;;;;;;5032299;28;20071;-72
2023/03/20 01:46:35;;;;;;;18.33;11.20;;;8.10;99.90;;;;;;5041099;28;20048;-73
2023/03/20 01:49:28;;;;;;;20.45;12.10;;;8.10;99.90;;;;;;5047829;28;20032;-72
2023/03/20 01:51:55;;;;;;;24.38;12.70;;;8.10;99.90;;;;;;5036675;28;20048;-73
2023/03/20 01:54:32;;;;;;;19.95;12.68;;;8.10;99.90;;;;;;5044611;28;20253;-73
2023/03/20 01:57:04;;;;;;;20.35;11.38;;;8.00;99.90;;;;;;5048959;28;20056;-73
2023/03/20 01:59:42;;;;;;;16.45;11.60;;;8.10;99.90;;;;;;5055116;28;20135;-73
2023/03/20 02:02:11;;;;;;;21.10;12.25;;;8.10;99.90;;;;;;5043096;28;20064;-71
2023/03/20 02:04:42;;;;;;;17.83;12.82;;;8.10;99.90;;;;;;5033737;28;20124;-71
2023/03/20 02:07:10;;;;;;;17.77;12.90;;;8.10;99.90;;;;;;5051542;28;20040;-71
2023/03/20 02:09:36;;;;;;;21.85;15.32;;;8.10;99.90;;;;;;5030279;28;20714;-71
2023/03/20 02:12:02;;;;;;;26.38;17.15;;;8.10;99.90;;;;;;5040735;28;20048;-71
2023/03/20 02:14:30;;;;;;;30.05;18.42;;;8.10;99.90;;;;;;5045591;28;20415;-71
2023/03/20 02:16:56;;;;;;;23.73;17.90;;;8.10;99.90;;;;;;5050170;28;20044;-71
2023/03/20 02:19:46;;;;;;;25.23;19.23;;;8.10;99.90;;;;;;5026615;28;20155;-71
2023/03/20 02:22:21;;;;;;;28.40;19.63;;;8.10;99.90;;;;;;5049245;28;20063;-71
2023/03/20 02:24:46;;;;;;;29.35;21.45;;;8.10;99.90;;;;;;5057462;28;20383;-71
2023/03/20 02:27:18;;;;;;;28.55;19.70;;;8.00;99.90;;;;;;5052537;28;20063;-71
2023/03/20 02:30:11;;;;;;;28.42;21.50;;;8.10;99.90;;;;;;5033488;28;20045;-71
2023/03/20 02:33:01;;;;;;;27.58;20.05;;;8.00;99.90;;;;;;5049081;28;20048;-71
2023/03/20 02:35:36;;;;;;;26.10;19.65;;;8.10;99.90;;;;;;5057744;28;20127;-71
2023/03/20 02:38:30;;;;;;;31.10;19.83;;;8.00;99.90;;;;;;5058135;28;20052;-71
2023/03/20 02:41:26;;;;;;;27.90;20.15;;;8.00;99.90;;;;;;5035839;28;20040;-71
2023/03/20 02:44:04;;;;;;;28.55;19.88;;;8.10;99.90;;;;;;5055233;28;20033;-71
2023/03/20 02:47:03;;;;;;;25.08;18.70;;;8.00;99.90;;;;;;5079289;28;20115;-71
2023/03/20 02:49:44;;;;;;;26.95;18.63;;;8.00;99.90;;;;;;5052345;28;20106;-71
2023/03/20 02:52:14;;;;;;;25.40;18.23;;;8.10;99.90;;;;;;5056401;28;20040;-71
2023/03/20 02:55:09;;;;;;;26.85;17.98;;;8.00;99.90;;;;;;5051197;28;20036;-71
2023/03/20 02:58:12;;;;;;;27.75;18.15;;;8.00;99.90;;;;;;5051262;28;20197;-71
2023/03/20 03:00:56;;;;;;;26.88;16.95;;;8.00;99.90;;;;;;5039532;28;20068;-71
2023/03/20 03:04:21;;;;;;;27.60;17.08;;;8.00;99.90;;;;;;5055798;28;20151;-71
2023/03/20 03:06:50;;;;;;;24.70;17.17;;;8.00;99.90;;;;;;4972362;28;20162;-71
2023/03/20 03:09:24;;;;;;;23.33;17.73;;;8.00;99.90;;;;;;4975463;28;20047;-71
2023/03/20 03:11:59;;;;;;;28.08;16.80;;;8.00;99.90;;;;;;5023731;28;20060;-71
2023/03/20 03:14:48;;;;;;;25.67;17.25;;;8.00;99.90;;;;;;5066240;28;20128;-71
2023/03/20 03:17:17;;;;;;;29.13;17.83;;;8.00;99.90;;;;;;5049892;28;20635;-71
2023/03/20 03:19:54;;;;;;;21.45;17.27;;;8.00;99.90;;;;;;5053090;28;20044;-71
2023/03/20 03:22:20;;;;;;;23.40;18.05;;;8.00;99.90;;;;;;5067943;28;20227;-71
2023/03/20 03:24:51;;;;;;;24.55;18.52;;;8.00;99.90;;;;;;5057808;28;20589;-71
2023/03/20 03:27:33;;;;;;;22.70;17.70;;;8.00;99.90;;;;;;5050244;28;20059;-71
2023/03/20 03:30:09;;;;;;;25.27;17.98;;;8.10;99.90;;;;;;5067467;28;20438;-71
2023/03/20 03:32:39;;;;;;;22.25;16.35;;;8.10;99.90;;;;;;5057738;28;20130;-71
2023/03/20 03:35:05;;;;;;;;;;;8.10;99.90;;;;;;5061610;28;20070;-71
2023/03/20 03:37:34;;;;;;;22.00;17.38;;;8.00;99.90;;;;;;5052734;28;19928;-71
2023/03/20 03:40:11;;;;;;;22.90;16.52;;;8.10;99.90;;;;;;5060261;28;20102;-71
2023/03/20 03:42:48;;;;;;;23.77;17.33;;;8.00;99.90;;;;;;5061284;28;20565;-71
2023/03/20 03:45:37;;;;;;;22.65;16.80;;;8.00;99.90;;;;;;5058551;28;20071;-71
2023/03/20 03:48:22;;;;;;;23.73;16.45;;;8.10;99.90;;;;;;5059393;28;20043;-71
2023/03/20 03:50:52;;;;;;;23.45;17.05;;;8.10;99.90;;;;;;5058534;28;20505;-71
2023/03/20 03:53:24;;;;;;;20.60;15.60;;;8.00;99.90;;;;;;5039559;28;20048;-71
2023/03/20 03:55:53;;;;;;;20.58;14.75;;;8.10;99.90;;;;;;5034385;28;20197;-71
2023/03/20 03:58:22;;;;;;;18.90;14.63;;;8.10;99.90;;;;;;5052343;28;20044;-71
2023/03/20 04:00:51;;;;;;;18.67;14.57;;;8.10;99.90;;;;;;5053309;28;20508;-71
2023/03/20 04:03:23;;;;;;;18.85;14.38;;;8.10;99.90;;;;;;5042194;28;20087;-71
2023/03/20 04:05:55;;;;;;;19.42;14.15;;;8.10;99.90;;;;;;5053711;28;20308;-72
2023/03/20 04:08:20;;;;;;;17.83;13.25;;;8.10;99.90;;;;;;5043244;28;20049;-71
2023/03/20 04:10:46;;;;;;;18.33;12.73;;;8.10;99.90;;;;;;5055988;28;20047;-71
2023/03/20 04:13:12;;;;;;;19.05;13.80;;;8.10;99.90;;;;;;5055613;28;20067;-71
2023/03/20 04:15:41;;;;;;;17.63;12.20;;;8.10;99.90;;;;;;5041082;28;20060;-71
2023/03/20 04:18:13;;;;;;;17.70;13.45;;;8.00;99.90;;;;;;5035470;28;20128;-71
2023/03/20 04:20:39;;;;;;;17.20;13.07;;;8.00;99.90;;;;;;5041259;28;20498;-71
2023/03/20 04:23:05;;;;;;;16.58;12.88;;;8.00;99.90;;;;;;5034415;28;20059;-72
2023/03/20 04:25:30;;;;;;;17.50;13.15;;;8.00;99.90;;;;;;5018544;28;20044;-71
2023/03/20 04:27:56;;;;;;;17.55;12.52;;;8.00;99.90;;;;;;5056134;28;20044;-71
2023/03/20 04:30:22;;;;;;;16.15;11.63;;;8.00;99.90;;;;;;5046364;28;20742;-72
2023/03/20 04:32:48;;;;;;;14.80;11.90;;;8.00;99.90;;;;;;5034029;28;20032;-71
2023/03/20 04:35:14;;;;;;;17.00;12.25;;;7.90;99.90;;;;;;5059806;28;20059;-71
2023/03/20 04:37:39;;;;;;;16.27;12.68;;;8.00;99.90;;;;;;5050175;28;20047;-71
2023/03/20 04:40:06;;;;;;;15.05;11.32;;;8.00;99.90;;;;;;5030879;28;20040;-71
2023/03/20 04:42:32;;;;;;;15.00;10.57;;;7.90;99.90;;;;;;5035149;28;20514;-71
2023/03/20 04:44:58;;;;;;;16.55;10.40;;;7.90;99.90;;;;;;5037589;28;20036;-71
2023/03/20 04:47:24;;;;;;;14.73;10.88;;;7.90;99.90;;;;;;5047783;28;20040;-71
2023/03/20 04:49:50;;;;;;;16.30;11.15;;;7.90;99.90;;;;;;5052333;28;20044;-71
2023/03/20 04:52:15;;;;;;;14.85;10.55;;;7.90;99.90;;;;;;5055249;28;20474;-71
2023/03/20 04:54:41;;;;;;;15.35;10.88;;;7.90;99.90;;;;;;5045377;28;20086;-71
2023/03/20 04:57:07;;;;;;;15.27;10.43;;;7.90;99.90;;;;;;5057038;28;20048;-71
2023/03/20 04:59:33;;;;;;;17.35;11.57;;;7.90;99.90;;;;;;5054592;28;21202;-71
2023/03/20 05:02:02;;;;;;;13.75;11.25;;;7.90;99.90;;;;;;5037149;28;20754;-71
2023/03/20 05:04:27;;;;;;;16.20;11.75;;;7.90;99.90;;;;;;5021661;28;20458;-71
2023/03/20 05:06:53;;;;;;;17.17;11.70;;;7.90;99.90;;;;;;5020900;28;20040;-71
2023/03/20 05:09:19;;;;;;;14.77;12.50;;;7.90;99.90;;;;;;5050450;28;20052;-71
2023/03/20 05:11:45;;;;;;;17.40;12.07;;;7.90;99.90;;;;;;5048865;28;20040;-71
2023/03/20 05:14:19;;;;;;;15.77;12.05;;;7.90;99.90;;;;;;5017685;28;20187;-71
2023/03/20 05:16:45;;;;;;;18.05;13.02;;;7.90;99.90;;;;;;5030957;28;20052;-71
2023/03/20 05:19:11;;;;;;;19.67;13.40;;;7.80;99.90;;;;;;5046463;28;20044;-71
2023/03/20 05:21:40;;;;;;;16.77;13.18;;;7.90;99.90;;;;;;5040264;28;20040;-71
2023/03/20 05:24:09;;;;;;;17.08;12.68;;;7.80;99.90;;;;;;5057333;28;20068;-71
2023/03/20 05:26:35;;;;;;;18.70;14.18;;;7.80;99.90;;;;;;5046624;28;20049;-71
2023/03/20 05:29:01;;;;;;;19.67;13.90;;;7.80;99.90;;;;;;5070337;28;20044;-71
2023/03/20 05:31:26;;;;;;;21.73;14.65;;;7.80;99.90;;;;;;5035229;28;20386;-71
2023/03/20 05:33:58;;;;;;;21.10;14.40;;;7.80;99.90;;;;;;5050860;28;20051;-71
2023/03/20 05:36:23;;;;;;;17.92;14.68;;;7.80;99.90;;;;;;5025627;28;20137;-71
2023/03/20 05:38:52;;;;;;;19.23;13.95;;;7.80;99.90;;;;;;5047980;28;20119;-71
2023/03/20 05:41:18;;;;;;;18.75;14.98;;;7.90;99.90;;;;;;5045623;28;20167;-71
2023/03/20 05:43:44;;;;;;;18.48;14.80;;;7.80;99.90;;;;;;5055203;28;20135;-71
2023/03/20 05:46:10;;;;;;;17.85;14.85;;;7.80;99.90;;;;;;5024307;28;20056;-71
2023/03/20 05:48:36;;;;;;;17.70;15.15;;;7.80;99.90;;;;;;5066214;28;20042;-71
2023/03/20 05:51:02;;;;;;;18.60;13.82;;;7.90;99.90;;;;;;5055135;28;20138;-71
2023/03/20 05:53:30;;;;;;;18.60;13.77;;;7.90;99.90;;;;;;5054720;28;20149;-71
2023/03/20 05:55:56;;;;;;;23.30;16.08;;;7.80;99.90;;;;;;5056719;28;20072;-71
2023/03/20 05:58:22;;;;;;;18.83;15.18;;;7.90;99.90;;;;;;5025234;28;20414;-71
2023/03/20 06:00:47;;;;;;;18.80;14.88;;;7.90;99.90;;;;;;5046493;28;20049;-71
2023/03/20 06:03:13;;;;;;;18.08;14.52;;;7.80;99.90;;;;;;5036450;28;20052;-72
2023/03/20 06:05:40;;;;;;;19.67;15.15;;;7.80;99.90;;;;;;5052339;28;20041;-71
2023/03/20 06:08:06;;;;;;;17.20;14.30;;;7.90;99.90;;;;;;5037760;28;20375;-71
2023/03/20 06:10:32;;;;;;;17.77;15.13;;;7.80;99.90;;;;;;5020744;28;20557;-71
2023/03/20 06:12:59;;;;;;;18.17;15.65;;;7.80;99.90;;;;;;5050606;28;20134;-71
2023/03/20 06:15:27;;;;;;;19.55;15.25;;;7.90;99.90;;;;;;5040661;28;20211;-71
2023/03/20 06:17:57;;;;;;;21.95;15.85;;;7.90;99.90;;;;;;5050605;28;20036;-71
2023/03/20 06:20:23;;;;;;;;;;;7.90;99.90;;;;;;5041208;28;20426;-71
2023/03/20 06:22:50;;;;;;;19.10;14.05;;;7.80;99.90;;;;;;5066781;28;19920;-71
2023/03/20 06:25:16;;;;;;;17.55;15.20;;;7.80;99.90;;;;;;5051057;28;20153;-71
2023/03/20 06:27:42;;;;;;;17.23;13.85;;;7.80;99.90;;;;;;5048263;28;20552;-73
2023/03/20 06:30:09;;;;;;;19.73;16.02;;;7.90;99.90;;;;;;5066639;28;20036;-73
2023/03/20 06:32:35;;;;;;;18.08;15.93;;;7.90;99.90;;;;;;5034077;28;20273;-73
2023/03/20 06:35:00;;;;;;;19.08;15.27;;;7.90;99.90;;;;;;5015891;28;20058;-73
2023/03/20 06:37:26;;;;;;;18.60;15.00;;;8.00;99.90;;;;;;5049927;28;20077;-73
2023/03/20 06:39:52;;;;;;;21.40;15.02;;;8.00;99.90;;;;;;5003468;28;20097;-73
2023/03/20 06:42:18;;;;;;;18.60;14.40;;;8.00;99.90;;;;;;5019600;28;20040;-73
2023/03/20 06:44:44;;;;;;;19.40;14.73;;;8.00;99.90;;;;;;5038337;28;20120;-73
2023/03/20 06:47:10;;;;;;;18.48;13.70;;;8.00;99.90;;;;;;5028555;28;20135;-73
2023/03/20 06:49:36;;;;;;;18.23;14.27;;;8.00;99.90;;;;;;5034518;28;20135;-73
2023/03/20 06:52:02;;;;;;;17.60;13.98;;;8.00;99.90;;;;;;5051799;28;20041;-73
2023/03/20 06:54:28;;;;;;;18.33;14.45;;;8.10;99.90;;;;;;5046889;28;20051;-72
2023/03/20 06:56:54;;;;;;;18.38;15.02;;;8.10;99.90;;;;;;5025661;28;20123;-72
2023/03/20 06:59:19;;;;;;;17.15;14.68;;;8.10;99.90;;;;;;5048742;28;20170;-73
2023/03/20 07:01:45;;;;;;;18.23;14.57;;;8.10;99.90;;;;;;5047923;28;20501;-71
2023/03/20 07:04:11;;;;;;;17.38;14.30;;;8.10;99.90;;;;;;5048890;28;20040;-71
2023/03/20 07:06:37;;;;;;;20.20;14.85;;;8.20;99.90;;;;;;5039662;28;20463;-70
2023/03/20 07:09:09;;;;;;;20.30;15.77;;;8.20;99.90;;;;;;5032108;28;20039;-71
2023/03/20 07:11:34;;;;;;;17.85;14.10;;;8.10;99.90;;;;;;5053727;28;20693;-71
2023/03/20 07:14:03;;;;;;;20.65;14.73;;;8.20;99.90;;;;;;5003655;28;20040;-71
2023/03/20 07:16:29;;;;;;;20.48;14.27;;;8.20;99.90;;;;;;5046804;28;20383;-71
2023/03/20 07:18:58;;;;;;;19.98;14.52;;;8.20;99.90;;;;;;5054873;28;20047;-70
2023/03/20 07:21:23;;;;;;;18.25;15.23;;;8.20;99.90;;;;;;5041287;28;20041;-71
2023/03/20 07:23:49;;;;;;;19.13;14.82;;;8.20;99.90;;;;;;5040726;28;20588;-71
2023/03/20 07:26:15;;;;;;;19.70;14.38;;;8.20;99.90;;;;;;5050258;28;20059;-70
2023/03/20 07:28:41;;;;;;;20.40;14.35;;;8.20;99.90;;;;;;5050342;28;20040;-71
2023/03/20 07:31:17;;;;;;;20.27;15.93;;;8.30;99.90;;;;;;5038759;28;20047;-71
2023/03/20 07:33:43;;;;;;;18.80;14.75;;;8.30;99.90;;;;;;5044371;28;20055;-72
2023/03/20 07:36:09;;;;;;;19.33;14.75;;;8.30;99.90;;;;;;5023396;28;20542;-72
2023/03/20 07:38:35;;;;;;;19.40;14.88;;;8.40;99.90;;;;;;5042246;28;20136;-71
2023/03/20 07:41:01;;;;;;;20.65;14.70;;;8.40;99.90;;;;;;5021304;28;20114;-70
2023/03/20 07:43:27;;;;;;;18.95;15.25;;;8.50;99.90;;;;;;5038648;28;20048;-71
2023/03/20 07:45:53;;;;;;;20.80;14.95;;;8.50;99.90;;;;;;5041650;28;20436;-71
2023/03/20 07:48:19;;;;;;;19.25;14.80;;;8.50;99.90;;;;;;5038427;28;20072;-71
2023/03/20 07:50:45;;;;;;;23.02;15.77;;;8.50;99.90;;;;;;5039543;28;20505;-71
2023/03/20 07:53:10;;;;;;;21.25;15.90;;;8.60;99.90;;;;;;5035690;28;20108;-71
2023/03/20 07:55:36;;;;;;;19.73;14.98;;;8.60;99.90;;;;;;5043750;28;20553;-71
2023/03/20 07:58:02;;;;;;;20.65;15.88;;;8.60;99.90;;;;;;5039061;28;20037;-71
2023/03/20 08:00:28;;;;;;;21.23;16.02;;;8.60;99.90;;;;;;5051374;28;22034;-72
2023/03/20 08:02:55;;;;;;;20.73;14.63;;;8.70;99.90;;;;;;5038547;28;20041;-71
2023/03/20 08:05:22;;;;;;;19.08;14.93;;;8.70;99.90;;;;;;5034898;28;20074;-71
2023/03/20 08:07:48;;;;;;;23.55;15.98;;;8.70;99.90;;;;;;5055580;28;20075;-71
2023/03/20 08:10:14;;;;;;;20.20;15.38;;;8.80;99.90;;;;;;5039591;28;20039;-72
2023/03/20 08:12:40;;;;;;;20.90;15.60;;;8.80;99.90;;;;;;5035890;28;20489;-72
2023/03/20 08:15:06;;;;;;;23.27;15.70;;;8.80;99.90;;;;;;5036100;28;20090;-72
2023/03/20 08:17:35;;;;;;;17.35;14.68;;;8.80;99.90;;;;;;5034037;28;20044;-71
2023/03/20 08:20:01;;;;;;;20.52;15.88;;;8.80;99.90;;;;;;5038186;28;20040;-72
2023/03/20 08:22:27;;;;;;;19.80;15.68;;;8.80;99.90;;;;;;5059018;28;20368;-72
2023/03/20 08:24:53;;;;;;;20.13;15.63;;;8.90;99.90;;;;;;5032830;28;20471;-71
2023/03/20 08:27:24;;;;;;;21.58;16.25;;;8.90;99.90;;;;;;5048991;28;20044;-72
2023/03/20 08:29:50;;;;;;;21.75;16.75;;;8.90;99.90;;;;;;5032841;28;20040;-71
2023/03/20 08:32:16;;;;;;;22.10;16.15;;;9.00;99.90;;;;;;5029590;28;20043;-71
2023/03/20 08:34:42;;;;;;;18.90;14.85;;;9.10;99.90;;;;;;5031143;28;20040;-71
2023/03/20 08:37:08;;;;;;;22.13;15.95;;;9.10;99.90;;;;;;5064453;28;20051;-72
2023/03/20 08:39:35;;;;;;;20.50;15.65;;;9.20;99.90;;;;;;5059914;28;20083;-71
2023/03/20 08:42:00;;;;;;;17.85;14.55;;;9.20;99.90;;;;;;5063299;28;20824;-71
2023/03/20 08:44:26;;;;;;;18.15;14.32;;;9.20;99.90;;;;;;5053171;28;20496;-71
2023/03/20 08:46:53;;;;;;;21.40;15.52;;;9.30;99.90;;;;;;5048208;28;20376;-71
2023/03/20 08:49:19;;;;;;;20.92;16.02;;;9.40;99.90;;;;;;5032509;28;20348;-71
2023/03/20 08:51:45;;;;;;;21.75;15.77;;;9.40;99.90;;;;;;5062124;28;20551;-71
2023/03/20 08:54:11;;;;;;;16.17;14.00;;;9.50;99.90;;;;;;5049558;28;20560;-71
2023/03/20 08:56:36;;;;;;;22.67;15.27;;;9.60;99.90;;;;;;5046271;28;20051;-71
2023/03/20 08:59:03;;;;;;;22.30;14.55;;;9.60;99.90;;;;;;5047602;28;20481;-72
2023/03/20 09:01:31;;;;;;;17.52;13.35;;;9.60;99.90;;;;;;5062737;28;20151;-74
2023/03/20 09:03:57;;;;;;;20.50;14.55;;;9.60;99.90;;;;;;5065650;28;20036;-73
2023/03/20 09:06:24;;;;;;;18.10;14.02;;;9.60;99.90;;;;;;5048877;28;20400;-73
2023/03/20 09:08:51;;;;;;;18.42;14.50;;;9.60;99.90;;;;;;5045079;28;20064;-73
2023/03/20 09:11:17;;;;;;;19.65;14.40;;;9.60;99.90;;;;;;5047712;28;20402;-74
2023/03/20 09:13:43;;;;;;;17.60;13.40;;;9.70;99.90;;;;;;5032471;28;20635;-73
2023/03/20 09:16:09;;;;;;;17.40;13.60;;;9.70;99.90;;;;;;5063812;28;20131;-73
2023/03/20 09:18:35;;;;;;;17.77;13.80;;;9.70;99.90;;;;;;5032424;28;20043;-74
2023/03/20 09:21:01;;;;;;;16.63;13.30;;;9.80;99.90;;;;;;5025147;28;20051;-74
2023/03/20 09:23:26;;;;;;;18.52;12.98;;;9.90;99.90;;;;;;5062173;28;20565;-74
2023/03/20 09:25:52;;;;;;;17.83;13.45;;;9.90;99.90;;;;;;5064036;28;20183;-73
2023/03/20 09:28:18;;;;;;;15.50;12.45;;;9.90;99.90;;;;;;5065200;28;20052;-73
2023/03/20 09:30:44;;;;;;;16.05;13.00;;;9.90;99.90;;;;;;5046755;28;20074;-73
2023/03/20 09:33:10;;;;;;;16.38;12.00;;;10.00;99.90;;;;;;5047988;28;20401;-73
2023/03/20 09:35:36;;;;;;;16.45;12.93;;;10.00;99.90;;;;;;5030138;28;20486;-73
2023/03/20 09:38:02;;;;;;;14.88;12.07;;;10.10;99.90;;;;;;5032908;28;20042;-74
2023/03/20 09:40:48;;;;;;;15.52;11.85;;;10.20;99.90;;;;;;5045837;28;20036;-74
2023/03/20 09:43:48;;;;;;;17.02;11.98;;;10.20;99.90;;;;;;5047784;28;20044;-74
2023/03/20 09:46:48;;;;;;;16.20;12.38;;;10.20;99.90;;;;;;5061989;28;20566;-73
2023/03/20 09:49:42;;;;;;;15.18;12.30;;;10.20;99.90;;;;;;5061564;28;20067;-73
2023/03/20 09:52:19;;;;;;;16.40;12.55;;;10.20;99.90;;;;;;5062431;28;20055;-74
2023/03/20 09:54:50;;;;;;;16.42;12.38;;;10.20;99.90;;;;;;5063930;28;20079;-73
2023/03/20 09:57:26;;;;;;;19.40;13.50;;;10.30;99.90;;;;;;5064998;28;20178;-73
2023/03/20 10:00:00;;;;;;;16.83;12.35;;;10.40;99.90;;;;;;5062273;28;20131;-73
2023/03/20 10:02:32;;;;;;;17.15;13.07;;;10.40;99.90;;;;;;5062611;28;20128;-74
2023/03/20 10:05:01;;;;;;;16.48;13.75;;;10.40;99.90;;;;;;5063749;28;20457;-74
2023/03/20 10:07:30;;;;;;;18.35;14.68;;;10.50;99.90;;;;;;5044770;28;20051;-73
2023/03/20 10:09:56;;;;;;;18.30;13.48;;;10.50;99.90;;;;;;5061308;28;20036;-74
2023/03/20 10:12:56;;;;;;;17.20;13.52;;;10.60;99.90;;;;;;5063108;28;20051;-73
2023/03/20 10:15:42;;;;;;;16.42;12.32;;;10.70;99.90;;;;;;5044108;28;20121;-74
2023/03/20 10:18:26;;;;;;;16.65;12.75;;;10.70;99.90;;;;;;5059399;28;20075;-74
2023/03/20 10:21:14;;;;;;;14.15;11.80;;;10.70;99.90;;;;;;5044755;28;20119;-74
2023/03/20 10:24:04;;;;;;;18.77;12.25;;;10.60;99.90;;;;;;5060004;28;20356;-73
2023/03/20 10:26:37;;;;;;;18.15;13.45;;;10.50;99.90;;;;;;5053958;28;20109;-74
2023/03/20 10:29:32;;;;;;;17.45;13.63;;;10.40;99.90;;;;;;5064589;28;20510;-73
2023/03/20 10:32:20;;;;;;;20.33;15.45;;;10.40;99.90;;;;;;5063403;28;20052;-73
2023/03/20 10:35:21;;;;;;;17.85;13.95;;;10.40;99.90;;;;;;5063586;28;20040;-75
2023/03/20 10:38:11;;;;;;;18.00;14.35;;;10.30;99.90;;;;;;5064139;28;20098;-74
2023/03/20 10:40:40;;;;;;;18.58;13.93;;;10.20;99.90;;;;;;5062291;28;20058;-71
2023/03/20 10:43:29;;;;;;;19.00;13.82;;;10.20;99.90;;;;;;5064846;28;20413;-71
2023/03/20 10:45:58;;;;;;;20.52;15.52;;;10.20;99.90;;;;;;5045188;28;20494;-71
2023/03/20 10:48:38;;;;;;;21.73;14.50;;;10.10;99.90;;;;;;5061987;28;20087;-71
2023/03/20 10:51:05;;;;;;;18.27;14.27;;;10.10;99.90;;;;;;5064455;28;20089;-71
2023/03/20 10:53:45;;;;;;;18.05;14.00;;;10.10;99.90;;;;;;5044717;28;20055;-71
2023/03/20 10:56:34;;;;;;;18.70;14.40;;;10.20;99.90;;;;;;5045974;28;20042;-71
2023/03/20 10:59:15;;;;;;;17.80;12.80;;;10.20;99.90;;;;;;5060856;28;20044;-72
2023/03/20 11:01:40;;;;;;;;;;;10.30;99.90;;;;;;5062404;28;20063;-71
2023/03/20 11:04:06;;;;;;;18.90;12.27;;;10.30;99.90;;;;;;5062975;28;20009;-70
2023/03/20 11:06:40;;;;;;;18.10;13.55;;;10.30;99.90;;;;;;5050350;28;20371;-71
2023/03/20 11:09:20;;;;;;;17.17;12.70;;;10.30;99.90;;;;;;5047688;28;20615;-71
2023/03/20 11:11:48;;;;;;;16.83;12.13;;;10.20;99.90;;;;;;5064403;28;20048;-71
2023/03/20 11:14:21;;;;;;;15.70;11.50;;;10.10;99.90;;;;;;5049679;28;20056;-71
2023/03/20 11:16:52;;;;;;;17.95;11.48;;;10.10;99.90;;;;;;5048100;28;20052;-71
2023/03/20 11:19:20;;;;;;;15.85;11.13;;;10.10;99.90;;;;;;5046447;28;20044;-70
2023/03/20 11:21:51;;;;;;;17.83;11.73;;;10.10;99.90;;;;;;5047392;28;20037;-71
2023/03/20 11:24:36;;;;;;;15.93;10.75;;;10.10;99.90;;;;;;5056393;28;20048;-71
2023/03/20 11:27:11;;;;;;;16.98;11.35;;;10.10;99.90;;;;;;5060146;28;20060;-71
2023/03/20 11:29:39;;;;;;;16.92;11.63;;;10.10;99.90;;;;;;5048837;28;20131;-71
2023/03/20 11:32:33;;;;;;;12.75;9.95;;;10.10;99.90;;;;;;5046446;28;20045;-71
2023/03/20 11:35:21;;;;;;;14.70;10.88;;;10.10;99.90;;;;;;5063443;28;20044;-70
2023/03/20 11:37:50;;;;;;;13.18;9.52;;;10.00;99.90;;;;;;5043823;28;20444;-71
2023/03/20 11:40:28;;;;;;;14.98;10.45;;;10.00;99.90;;;;;;5047954;28;20398;-71
2023/03/20 11:43:00;;;;;;;14.65;10.00;;;10.00;99.90;;;;;;5066870;28;20490;-71
2023/03/20 11:45:41;;;;;;;12.75;9.23;;;10.00;99.90;;;;;;5063749;28;20081;-72
2023/03/20 11:48:21;;;;;;;13.88;9.27;;;10.00;99.90;;;;;;5049028;28;20375;-71
2023/03/20 11:51:03;;;;;;;;;;;10.00;99.90;;;;;;5053592;28;20047;-71
2023/03/20 11:53:56;;;;;;;11.27;8.55;;;9.90;99.90;;;;;;5046633;28;20460;-71
2023/03/20 11:56:32;;;;;;;11.85;7.75;;;9.90;99.90;;;;;;5067312;28;20051;-71
2023/03/20 11:59:17;;;;;;;12.35;7.43;;;9.90;99.90;;;;;;5059853;28;20051;-74
2023/03/20 12:01:45;;;;;;;11.30;7.28;;;9.90;99.90;;;;;;5062812;28;20509;-73
2023/03/20 12:04:24;;;;;;;13.70;7.63;;;9.80;99.90;;;;;;5044461;28;20060;-73
2023/03/20 12:06:59;;;;;;;10.40;7.07;;;9.80;99.90;;;;;;5046571;28;20524;-73
2023/03/20 12:10:01;;;;;;;13.60;6.90;;;9.80;99.90;;;;;;5048744;28;20398;-73
2023/03/20 12:12:49;;;;;;;9.65;6.95;;;9.80;99.90;;;;;;5061232;28;20051;-74
2023/03/20 12:15:23;;;;;;;11.15;6.65;;;9.80;99.90;;;;;;5052160;28;20044;-74
2023/03/20 12:17:55;;;;;;;10.32;5.93;;;9.80;99.90;;;;;;5060135;28;20045;-73
2023/03/20 12:20:36;;;;;;;9.90;6.10;;;9.80;99.90;;;;;;5046029;28;20055;-70
2023/03/20 12:23:08;;;;;;;10.38;5.72;;;9.80;99.90;;;;;;5063682;28;20762;-70
2023/03/20 12:25:58;;;;;;;10.75;6.10;;;9.80;99.90;;;;;;5063569;28;20494;-70
2023/03/20 12:28:33;;;;;;;8.43;5.60;;;9.80;99.90;;;;;;5056493;28;20425;-70
2023/03/20 12:31:34;;;;;;;11.68;5.95;;;9.90;99.90;;;;;;5065295;28;20052;-71
2023/03/20 12:34:09;;;;;;;9.18;4.90;;;10.00;99.90;;;;;;5060688;28;20042;-71
2023/03/20 12:36:42;;;;;;;9.30;4.72;;;9.90;99.90;;;;;;5066135;28;20050;-70
2023/03/20 12:39:15;;;;;;;7.70;4.38;;;9.90;99.90;;;;;;5056500;28;20421;-71
2023/03/20 12:42:03;;;;;;;11.88;5.93;;;9.90;99.90;;;;;;5056356;28;20357;-70
2023/03/20 12:44:52;;;;;;;9.32;6.20;;;9.80;99.90;;;;;;5048275;28;20116;-70
2023/03/20 12:47:46;;;;;;;11.05;6.80;;;9.70;99.90;;;;;;5059006;28;20051;-70
2023/03/20 12:50:36;;;;;;;11.00;6.15;;;9.70;99.90;;;;;;5063233;28;20501;-70
2023/03/20 12:53:44;;;;;;;17.20;7.60;;;9.70;99.90;;;;;;5062474;28;20051;-70
2023/03/20 12:56:42;;;;;;;12.57;7.43;;;9.70;99.90;;;;;;5046147;28;20055;-70
2023/03/20 12:59:14;;;;;;;12.27;8.57;;;9.70;99.90;;;;;;5050424;28;20045;-70
2023/03/20 13:01:57;;;;;;;13.30;8.85;;;9.60;99.90;;;;;;5055229;28;20044;-70
2023/03/20 13:04:51;;;;;;;14.20;8.43;;;9.60;99.90;;;;;;5047165;28;20055;-70